Time;durP1;ratioP1;P1;durP2;ratioP2;P2;SDS_P1;SDS_P2;PMS_P1;PMS_P2;Temp;Humidity;BMP_temperature;BMP_pressure;BME280_temperature;BME280_humidity;BME280_pressure;Samples;Min_cycle;Max_cycle;Signal;HPM_P1;HPM_P2
2022/03/14 00:01:54;;;;;;;6.33;4.90;;;;;;;9.93;43.72;101446.36;1823160;78;21456;-65
2022/03/14 00:04:23;;;;;;;6.47;5.10;;;;;;;9.93;43.75;101450.80;1823074;78;21028;-65
2022/03/14 00:06:51;;;;;;;6.05;4.95;;;;;;;9.93;43.75;101441.51;1823046;78;21055;-65
2022/03/14 00:09:18;;;;;;;5.72;5.03;;;;;;;9.93;43.77;101445.03;1805426;78;21124;-65
2022/03/14 00:11:46;;;;;;;5.58;4.75;;;;;;;9.93;43.75;101445.49;1790890;79;21454;-65
2022/03/14 00:14:13;;;;;;;6.53;5.12;;;;;;;9.93;43.75;101453.45;1790777;80;21052;-66
2022/03/14 00:16:43;;;;;;;7.45;5.50;;;;;;;9.92;43.76;101453.95;1790945;80;21516;-66
2022/03/14 00:19:10;;;;;;;6.45;5.75;;;;;;;9.91;43.73;101442.98;1790845;79;20998;-65
2022/03/14 00:21:39;;;;;;;5.65;5.05;;;;;;;9.92;43.75;101445.98;1790926;80;21890;-65
2022/03/14 00:24:08;;;;;;;5.67;5.17;;;;;;;9.91;43.77;101439.00;1790744;80;21045;-64
2022/03/14 00:26:34;;;;;;;6.20;5.20;;;;;;;9.91;43.74;101443.45;1792173;78;22041;-66
2022/03/14 00:29:03;;;;;;;5.45;4.40;;;;;;;9.91;43.76;101446.97;1790893;80;20998;-65
2022/03/14 00:31:31;;;;;;;6.15;5.15;;;;;;;9.91;43.76;101443.45;1790797;79;21025;-65
2022/03/14 00:33:57;;;;;;;7.00;5.72;;;;;;;9.91;43.75;101453.60;1791815;78;21237;-65
2022/03/14 00:36:27;;;;;;;7.12;5.55;;;;;;;9.90;43.77;101450.57;1823087;78;21025;-64
2022/03/14 00:38:54;;;;;;;8.18;6.83;;;;;;;9.91;43.74;101452.73;1823327;78;20982;-65
2022/03/14 00:41:22;;;;;;;6.95;6.25;;;;;;;9.89;43.75;101448.90;1823241;77;20986;-64
2022/03/14 00:43:49;;;;;;;7.33;6.53;;;;;;;9.90;43.76;101457.20;1822302;78;21014;-64
2022/03/14 00:46:17;;;;;;;7.75;6.53;;;;;;;9.89;43.74;101456.86;1823516;77;21266;-64
2022/03/14 00:48:45;;;;;;;6.78;6.08;;;;;;;9.90;43.78;101453.72;1826171;78;20981;-65
2022/03/14 00:51:11;;;;;;;7.70;6.35;;;;;;;9.89;43.78;101447.58;1826120;78;21013;-64
2022/03/14 00:53:39;;;;;;;6.87;5.92;;;;;;;9.89;43.75;101452.88;1826183;78;21536;-64
2022/03/14 00:56:06;;;;;;;7.55;6.30;;;;;;;9.89;43.77;101452.02;1826186;78;21527;-65
2022/03/14 00:58:34;;;;;;;7.92;6.45;;;;;;;9.89;43.74;101450.69;1826031;78;21227;-65
2022/03/14 01:01:02;;;;;;;7.65;6.75;;;;;;;9.89;43.75;101451.55;1798486;78;20998;-64
2022/03/14 01:03:29;;;;;;;7.87;7.03;;;;;;;9.89;43.74;101452.88;1793643;79;21540;-64
2022/03/14 01:05:56;;;;;;;8.28;6.95;;;;;;;9.89;43.77;101452.02;1793594;80;21534;-65
2022/03/14 01:08:23;;;;;;;8.68;7.30;;;;;;;9.87;43.76;101452.16;1793556;79;21033;-66
2022/03/14 01:10:50;;;;;;;8.25;7.35;;;;;;;9.88;43.75;101457.81;1793648;79;21300;-64
2022/03/14 01:13:18;;;;;;;7.62;6.12;;;;;;;9.88;43.75;101446.36;1793452;79;21006;-66
2022/03/14 01:15:45;;;;;;;9.03;7.12;;;;;;;9.88;43.75;101450.34;1793994;80;21009;-66
2022/03/14 01:18:13;;;;;;;8.40;6.85;;;;;;;9.88;43.74;101455.16;1794930;78;21052;-65
2022/03/14 01:20:41;;;;;;;8.75;7.17;;;;;;;9.87;43.75;101450.83;1793597;79;21085;-65
2022/03/14 01:23:09;;;;;;;8.45;6.92;;;;;;;9.87;43.78;101449.51;1793976;80;21545;-64
2022/03/14 01:25:37;;;;;;;9.38;7.20;;;;;;;9.86;43.75;101453.11;1793878;80;21030;-63
2022/03/14 01:28:04;;;;;;;9.63;7.20;;;;;;;9.87;43.75;101457.47;1793641;80;21009;-64
2022/03/14 01:30:31;;;;;;;8.63;7.22;;;;;;;9.86;43.74;101454.44;1793485;79;21084;-64
2022/03/14 01:32:59;;;;;;;7.85;7.05;;;;;;;9.86;43.74;101455.77;1794100;78;21024;-64
2022/03/14 01:35:27;;;;;;;8.25;7.25;;;;;;;9.86;43.76;101452.28;1814332;78;21291;-65
2022/03/14 01:37:55;;;;;;;8.80;7.62;;;;;;;9.86;43.75;101456.27;1825984;78;20966;-64
2022/03/14 01:40:23;;;;;;;10.32;7.78;;;;;;;9.85;43.77;101456.75;1826004;78;21662;-64
2022/03/14 01:42:50;;;;;;;8.30;7.05;;;;;;;9.86;43.75;101457.59;1825986;78;21005;-64
2022/03/14 01:45:17;;;;;;;9.38;7.05;;;;;;;9.85;43.77;101463.39;1825923;78;20998;-65
2022/03/14 01:47:45;;;;;;;9.90;8.23;;;;;;;9.84;43.75;101458.54;1822675;78;21220;-64
2022/03/14 01:50:13;;;;;;;9.50;7.87;;;;;;;9.83;43.77;101456.86;1819750;77;21097;-64
2022/03/14 01:52:41;;;;;;;9.55;8.30;;;;;;;9.85;43.77;101460.73;1820759;78;21078;-65
2022/03/14 01:55:08;;;;;;;9.45;7.80;;;;;;;9.84;43.77;101463.01;1820536;77;21026;-64
2022/03/14 01:57:37;;;;;;;9.60;7.62;;;;;;;9.83;43.76;101456.86;1820652;78;21037;-64
2022/03/14 02:00:10;;;;;;;8.58;7.53;;;;;;;9.84;43.77;101463.01;1820606;78;21238;-64
2022/03/14 02:02:44;;;;;;;8.55;7.03;;;;;;;9.83;43.76;101458.19;1820733;77;20993;-64
2022/03/14 02:05:15;;;;;;;8.78;7.40;;;;;;;9.84;43.77;101468.32;1820407;78;21021;-64
2022/03/14 02:07:41;;;;;;;8.73;7.08;;;;;;;9.83;43.78;101469.27;1810774;77;21018;-64
2022/03/14 02:10:09;;;;;;;8.93;6.85;;;;;;;9.83;43.76;101462.63;1788276;80;21537;-65
2022/03/14 02:12:43;;;;;;;8.10;7.30;;;;;;;9.82;43.77;101464.45;1788328;80;21245;-64
2022/03/14 02:15:11;;;;;;;10.10;7.70;;;;;;;9.83;43.77;101467.94;1788134;79;21021;-64
2022/03/14 02:17:40;;;;;;;8.63;7.75;;;;;;;9.83;43.77;101463.96;1788362;79;21026;-64
2022/03/14 02:20:09;;;;;;;8.73;7.50;;;;;;;9.82;43.77;101464.95;1788288;80;21072;-64
2022/03/14 02:22:36;;;;;;;10.63;7.83;;;;;;;9.82;43.75;101468.43;1788256;80;20982;-65
2022/03/14 02:25:02;;;;;;;8.53;7.72;;;;;;;9.82;43.77;101475.56;1789297;78;21240;-66
2022/03/14 02:27:30;;;;;;;10.30;7.83;;;;;;;9.81;43.77;101476.52;1771105;80;21580;-65
2022/03/14 02:29:57;;;;;;;9.38;7.50;;;;;;;9.81;43.79;101480.49;1788197;80;21352;-65
2022/03/14 02:32:24;;;;;;;10.05;7.92;;;;;;;9.81;43.77;101484.02;1788139;79;21061;-64
2022/03/14 02:34:51;;;;;;;9.63;7.85;;;;;;;9.81;43.79;101485.34;1814637;78;20986;-64
2022/03/14 02:37:18;;;;;;;10.72;8.35;;;;;;;9.81;43.78;101477.37;1820421;78;21264;-65
2022/03/14 02:39:47;;;;;;;8.35;7.15;;;;;;;9.81;43.76;101489.78;1820587;77;21546;-64
2022/03/14 02:42:14;;;;;;;7.87;7.08;;;;;;;9.81;43.79;101487.13;1803499;77;21010;-65
2022/03/14 02:44:43;;;;;;;8.85;7.90;;;;;;;9.81;43.78;101490.65;1788276;80;21041;-64
2022/03/14 02:47:10;;;;;;;8.90;7.42;;;;;;;9.80;43.78;101492.92;1789541;80;21079;-66
2022/03/14 02:49:37;;;;;;;10.25;7.97;;;;;;;9.81;43.79;101491.11;1793719;80;22126;-65
2022/03/14 02:52:05;;;;;;;10.10;7.40;;;;;;;9.81;43.79;101491.11;1793658;80;21022;-65
2022/03/14 02:54:31;;;;;;;10.60;8.35;;;;;;;9.80;43.77;101488.11;1793812;80;21584;-65
2022/03/14 02:56:58;;;;;;;9.30;7.67;;;;;;;9.80;43.79;101492.09;1793527;80;21450;-66
2022/03/14 02:59:25;;;;;;;9.90;8.10;;;;;;;9.80;43.77;101490.27;1794542;78;21263;-64
2022/03/14 03:01:52;;;;;;;9.68;7.95;;;;;;;9.80;43.80;101492.09;1793530;79;21458;-65
2022/03/14 03:04:18;;;;;;;9.38;7.58;;;;;;;9.80;43.79;101489.44;1793464;80;21037;-64
2022/03/14 03:06:45;;;;;;;9.25;7.53;;;;;;;9.80;43.79;101487.62;1793873;79;21025;-65
2022/03/14 03:09:12;;;;;;;8.50;7.60;;;;;;;9.79;43.77;101487.27;1822003;78;20989;-65
2022/03/14 03:11:39;;;;;;;10.48;8.13;;;;;;;9.80;43.77;101492.09;1826315;78;21478;-65
2022/03/14 03:14:09;;;;;;;10.30;7.40;;;;;;;9.80;43.78;101494.75;1826361;78;21453;-65
2022/03/14 03:16:35;;;;;;;9.10;7.90;;;;;;;9.81;43.78;101493.77;1804155;78;21018;-64
2022/03/14 03:19:03;;;;;;;9.65;7.58;;;;;;;9.79;43.77;101493.91;1793849;80;21441;-65
2022/03/14 03:21:34;;;;;;;10.60;8.58;;;;;;;9.78;43.79;101492.20;1793662;79;21560;-65
2022/03/14 03:24:01;;;;;;;9.83;8.10;;;;;;;9.78;43.78;101493.53;1793626;79;21069;-65
2022/03/14 03:26:29;;;;;;;10.93;8.35;;;;;;;9.79;43.79;101501.00;1793673;79;21506;-64
2022/03/14 03:28:55;;;;;;;8.70;7.15;;;;;;;9.80;43.79;101505.36;1793551;80;21013;-64
2022/03/14 03:31:22;;;;;;;11.33;8.60;;;;;;;9.78;43.79;101500.17;1793590;80;20981;-63
2022/03/14 03:33:50;;;;;;;9.25;8.05;;;;;;;9.78;43.79;101500.66;1806998;78;20993;-64
2022/03/14 03:36:17;;;;;;;9.55;8.38;;;;;;;9.78;43.78;101501.98;1826061;78;21556;-64
2022/03/14 03:38:43;;;;;;;8.93;7.33;;;;;;;9.78;43.79;101509.95;1807834;78;21216;-66
2022/03/14 03:41:11;;;;;;;9.38;8.38;;;;;;;9.79;43.78;101512.95;1826012;78;21052;-65
2022/03/14 03:43:39;;;;;;;10.10;8.78;;;;;;;9.78;43.80;101516.58;1826152;78;21052;-64
2022/03/14 03:46:06;;;;;;;11.48;9.08;;;;;;;9.78;43.78;101516.58;1826193;78;21605;-65
2022/03/14 03:48:33;;;;;;;9.88;8.45;;;;;;;9.78;43.79;101521.89;1817932;77;21557;-64
2022/03/14 03:51:01;;;;;;;10.10;8.73;;;;;;;9.77;43.80;101517.53;1787629;79;22622;-65
2022/03/14 03:53:27;;;;;;;9.98;7.90;;;;;;;9.78;43.79;101517.91;1782445;79;21466;-64
2022/03/14 03:55:54;;;;;;;9.85;8.35;;;;;;;9.77;43.79;101526.36;1782541;80;21006;-64
2022/03/14 03:58:22;;;;;;;10.48;8.63;;;;;;;9.78;43.79;101525.88;1782514;79;21512;-65
2022/03/14 04:00:51;;;;;;;9.98;8.98;;;;;;;9.78;43.78;101531.19;1782546;80;20998;-65
2022/03/14 04:03:20;;;;;;;9.95;8.50;;;;;;;9.78;43.78;101531.19;1782400;80;21133;-64
2022/03/14 04:05:49;;;;;;;10.15;8.40;;;;;;;9.78;43.79;101529.86;1782488;80;21049;-65
2022/03/14 04:08:16;;;;;;;10.20;8.30;;;;;;;9.77;43.79;101530.34;1783578;79;21021;-64
2022/03/14 04:10:43;;;;;;;11.48;8.90;;;;;;;9.77;43.78;101534.78;1782653;80;21049;-65
2022/03/14 04:13:10;;;;;;;11.48;8.83;;;;;;;9.77;43.79;101533.45;1792331;79;20990;-65
2022/03/14 04:15:44;;;;;;;10.98;8.70;;;;;;;9.77;43.79;101530.80;1809229;79;21135;-65
2022/03/14 04:18:07;;;;;;;9.80;8.60;;;;;;;9.77;43.79;101535.66;1813888;78;21005;-65
2022/03/14 04:20:34;;;;;;;10.55;8.50;;;;;;;9.76;43.78;101527.31;1814524;78;21018;-65
2022/03/14 04:23:01;;;;;;;11.20;9.25;;;;;;;9.77;43.79;101532.13;1813600;78;21564;-65
2022/03/14 04:25:28;;;;;;;11.35;9.03;;;;;;;9.76;43.80;101527.31;1782559;80;21410;-64
2022/03/14 04:27:54;;;;;;;10.82;8.63;;;;;;;9.76;43.80;101528.64;1782678;80;21793;-64
2022/03/14 04:30:21;;;;;;;12.33;8.88;;;;;;;9.76;43.80;101529.97;1782465;80;21025;-65
2022/03/14 04:32:47;;;;;;;11.35;9.48;;;;;;;9.77;43.80;101533.45;1782578;79;21589;-64
2022/03/14 04:35:15;;;;;;;10.38;8.70;;;;;;;9.76;43.78;101523.33;1813424;79;21442;-65
2022/03/14 04:37:41;;;;;;;10.15;8.73;;;;;;;9.77;43.79;101534.78;1814658;79;20998;-65
2022/03/14 04:40:11;;;;;;;11.05;8.85;;;;;;;9.76;43.79;101532.63;1813310;77;21234;-64
2022/03/14 04:42:37;;;;;;;11.22;8.70;;;;;;;9.76;43.78;101532.63;1782385;80;21509;-65
2022/03/14 04:45:05;;;;;;;11.18;9.25;;;;;;;9.76;43.80;101535.27;1782623;80;21455;-64
2022/03/14 04:47:34;;;;;;;9.80;8.15;;;;;;;9.76;43.81;101541.08;1782413;79;21089;-64
2022/03/14 04:50:03;;;;;;;11.95;9.10;;;;;;;9.75;43.80;101536.23;1782471;80;21025;-65
2022/03/14 04:52:31;;;;;;;11.08;9.25;;;;;;;9.74;43.80;101546.49;1782658;80;21110;-66
2022/03/14 04:54:59;;;;;;;9.65;8.50;;;;;;;9.75;43.81;101546.00;1782756;79;20958;-64
2022/03/14 04:57:25;;;;;;;10.78;8.98;;;;;;;9.75;43.80;101548.66;1783513;79;21056;-65
2022/03/14 04:59:52;;;;;;;12.93;9.28;;;;;;;9.75;43.81;101546.00;1782694;79;21529;-65
2022/03/14 05:02:25;;;;;;;10.45;9.18;;;;;;;9.75;43.82;101549.98;1782490;80;21360;-64
2022/03/14 05:04:52;;;;;;;10.53;8.83;;;;;;;9.75;43.82;101548.17;1782623;80;21193;-65
2022/03/14 05:07:20;;;;;;;12.25;9.05;;;;;;;9.74;43.82;101549.64;1782535;80;21517;-66
2022/03/14 05:09:48;;;;;;;9.85;8.83;;;;;;;9.75;43.81;101550.83;1782542;79;20979;-64
2022/03/14 05:12:15;;;;;;;10.45;8.48;;;;;;;9.75;43.81;101555.30;1782352;79;21069;-65
2022/03/14 05:14:42;;;;;;;10.40;8.40;;;;;;;9.75;43.81;101556.13;1783514;79;21501;-65
2022/03/14 05:17:10;;;;;;;10.43;8.43;;;;;;;9.76;43.83;101555.67;1782429;80;21142;-65
2022/03/14 05:19:39;;;;;;;10.00;8.80;;;;;;;9.76;43.81;101557.84;1808296;79;21534;-65
2022/03/14 05:22:05;;;;;;;11.35;9.53;;;;;;;9.76;43.81;101559.16;1802859;79;20975;-64
2022/03/14 05:24:32;;;;;;;9.85;8.20;;;;;;;9.76;43.81;101559.66;1802762;79;20982;-65
2022/03/14 05:26:59;;;;;;;10.78;8.53;;;;;;;9.77;43.80;101564.84;1802821;79;21029;-64
2022/03/14 05:29:25;;;;;;;8.78;7.87;;;;;;;9.77;43.81;101560.00;1802838;79;21524;-64
2022/03/14 05:31:53;;;;;;;10.72;8.73;;;;;;;9.78;43.80;101567.02;1795626;79;21014;-65
2022/03/14 05:34:20;;;;;;;9.65;8.63;;;;;;;9.78;43.81;101573.16;1778678;79;21021;-65
2022/03/14 05:36:47;;;;;;;9.45;8.33;;;;;;;9.78;43.81;101569.67;1776058;80;21025;-64
2022/03/14 05:39:14;;;;;;;9.60;8.23;;;;;;;9.78;43.80;101570.50;1776171;80;21021;-64
2022/03/14 05:41:40;;;;;;;9.53;8.20;;;;;;;9.78;43.81;101569.67;1776026;80;21229;-66
2022/03/14 05:44:07;;;;;;;10.43;8.60;;;;;;;9.79;43.80;101571.34;1775967;80;21033;-64
2022/03/14 05:46:33;;;;;;;10.43;8.13;;;;;;;9.80;43.79;101571.72;1776019;80;21142;-64
2022/03/14 05:49:00;;;;;;;9.50;8.50;;;;;;;9.80;43.81;101571.23;1792957;78;20955;-65
2022/03/14 05:51:27;;;;;;;10.25;8.23;;;;;;;9.80;43.78;101563.76;1826222;78;21072;-65
2022/03/14 05:53:55;;;;;;;10.08;7.55;;;;;;;9.81;43.79;101568.09;1826094;78;21580;-65
2022/03/14 05:56:22;;;;;;;8.83;7.33;;;;;;;9.81;43.80;101566.30;1826000;78;20978;-65
2022/03/14 05:58:51;;;;;;;9.58;8.03;;;;;;;9.84;43.77;101571.84;1826123;78;21534;-65
2022/03/14 06:01:17;;;;;;;8.13;7.05;;;;;;;9.82;43.78;101565.32;1826139;78;21508;-65
2022/03/14 06:03:44;;;;;;;9.75;7.78;;;;;;;9.83;43.79;101566.16;1826225;78;20998;-65
2022/03/14 06:06:11;;;;;;;9.53;8.23;;;;;;;9.84;43.78;101566.53;1824889;78;21234;-66
2022/03/14 06:08:37;;;;;;;9.13;8.08;;;;;;;9.84;43.78;101565.20;1825990;78;21045;-66
2022/03/14 06:11:06;;;;;;;9.78;7.35;;;;;;;9.84;43.81;101560.73;1826065;78;21029;-66
2022/03/14 06:13:33;;;;;;;7.67;6.87;;;;;;;9.86;43.79;101567.26;1826082;78;21165;-64
2022/03/14 06:15:59;;;;;;;9.23;8.25;;;;;;;9.86;43.77;101568.59;1826146;78;21084;-65
2022/03/14 06:18:29;;;;;;;8.48;7.22;;;;;;;9.87;43.79;101571.62;1826008;78;21377;-64
2022/03/14 06:20:56;;;;;;;9.00;6.97;;;;;;;9.87;43.78;101568.97;1826051;78;21010;-66
2022/03/14 06:23:23;;;;;;;8.73;7.33;;;;;;;9.88;43.77;101566.66;1810977;78;21529;-65
2022/03/14 06:25:51;;;;;;;8.45;7.20;;;;;;;9.89;43.78;101567.03;1825996;78;21213;-65
2022/03/14 06:28:18;;;;;;;7.65;6.58;;;;;;;9.91;43.77;101572.20;1826009;78;21030;-65
2022/03/14 06:30:45;;;;;;;8.68;7.12;;;;;;;9.92;43.76;101570.76;1826047;78;21231;-65
2022/03/14 06:33:12;;;;;;;8.43;6.78;;;;;;;9.94;43.77;101567.50;1826074;78;20994;-66
2022/03/14 06:35:40;;;;;;;7.80;6.90;;;;;;;9.95;43.76;101563.90;1826082;78;20990;-65
2022/03/14 06:38:07;;;;;;;7.92;7.08;;;;;;;9.95;43.76;101562.57;1826175;78;21615;-67
2022/03/14 06:40:34;;;;;;;7.17;6.30;;;;;;;9.96;43.75;101566.06;1825103;78;20986;-65
2022/03/14 06:43:01;;;;;;;8.48;6.95;;;;;;;9.97;43.73;101561.12;1826076;78;21239;-65
2022/03/14 06:45:29;;;;;;;7.03;6.17;;;;;;;9.99;43.74;101568.48;1826133;78;21072;-65
2022/03/14 06:47:56;;;;;;;8.35;6.70;;;;;;;10.01;43.73;101567.88;1826410;78;21439;-65
2022/03/14 06:50:23;;;;;;;7.28;6.50;;;;;;;10.00;43.72;101565.69;1825829;78;20966;-65
2022/03/14 06:52:50;;;;;;;7.15;6.45;;;;;;;10.01;43.71;101568.72;1826028;78;21041;-65
2022/03/14 06:55:17;;;;;;;7.47;6.67;;;;;;;10.03;43.71;101574.76;1826038;78;21234;-65
2022/03/14 06:57:43;;;;;;;8.18;6.42;;;;;;;10.04;43.69;101580.45;1824770;78;21030;-65
2022/03/14 07:01:14;;;;;;;6.17;5.50;;;;;;;10.11;43.68;101580.80;1797453;79;28138;-66
2022/03/14 07:03:41;;;;;;;8.08;6.83;;;;;;;10.08;43.65;101585.01;1757380;81;21091;-66
2022/03/14 07:06:07;;;;;;;7.85;6.53;;;;;;;10.10;43.65;101583.56;1757346;81;21241;-64
2022/03/14 07:08:34;;;;;;;7.15;6.45;;;;;;;10.11;43.64;101587.44;1757160;81;21526;-65
2022/03/14 07:11:01;;;;;;;6.25;5.65;;;;;;;10.12;43.63;101585.61;1757250;81;21323;-66
2022/03/14 07:13:27;;;;;;;8.15;6.80;;;;;;;10.13;43.64;101584.67;1751313;81;21080;-65
2022/03/14 07:15:56;;;;;;;7.35;6.35;;;;;;;10.13;43.62;101585.50;1727145;82;21085;-65
2022/03/14 07:18:22;;;;;;;8.00;6.70;;;;;;;10.15;43.62;101586.72;1730387;81;21247;-65
2022/03/14 07:20:49;;;;;;;8.63;6.45;;;;;;;10.16;43.61;101581.30;1723635;83;20996;-64
2022/03/14 07:23:16;;;;;;;7.45;5.85;;;;;;;10.17;43.62;101582.97;1723749;83;20953;-65
2022/03/14 07:25:43;;;;;;;7.25;6.08;;;;;;;10.18;43.62;101587.33;1723778;83;21037;-66
2022/03/14 07:28:10;;;;;;;8.60;6.75;;;;;;;10.20;43.61;101580.57;1724166;82;21048;-65
2022/03/14 07:30:41;;;;;;;7.70;5.67;;;;;;;10.22;43.60;101582.13;1739363;82;22180;-66
2022/03/14 07:33:08;;;;;;;6.50;5.70;;;;;;;10.23;43.59;101585.13;1746285;82;20994;-66
2022/03/14 07:35:35;;;;;;;7.67;5.58;;;;;;;10.25;43.60;101582.36;1746179;82;21034;-66
2022/03/14 07:38:03;;;;;;;6.90;5.72;;;;;;;10.27;43.58;101585.73;1746335;82;21093;-64
2022/03/14 07:40:31;;;;;;;6.60;5.90;;;;;;;10.29;43.57;101589.12;1746182;82;21026;-65
2022/03/14 07:42:59;;;;;;;5.78;5.03;;;;;;;10.32;43.58;101589.41;1746300;82;21226;-64
2022/03/14 07:45:28;;;;;;;6.90;5.55;;;;;;;10.33;43.58;101585.77;1745503;82;21054;-65
2022/03/14 07:47:56;;;;;;;6.45;5.78;;;;;;;10.34;43.58;101586.98;1725947;82;20997;-65
2022/03/14 07:50:26;;;;;;;6.83;5.75;;;;;;;10.37;43.56;101584.10;1694732;84;21477;-65
2022/03/14 07:52:54;;;;;;;6.47;5.78;;;;;;;10.39;43.56;101581.30;1694756;84;21583;-66
2022/03/14 07:55:21;;;;;;;5.80;4.90;;;;;;;10.40;43.54;101585.17;1694721;84;21253;-65
2022/03/14 07:57:49;;;;;;;6.50;5.50;;;;;;;10.43;43.54;101583.61;1694772;84;21029;-64
2022/03/14 08:00:19;;;;;;;6.35;5.60;;;;;;;10.46;43.53;101589.64;1687509;84;21045;-66
2022/03/14 08:02:47;;;;;;;7.15;5.70;;;;;;;10.48;43.51;101591.20;1679843;85;21049;-66
2022/03/14 08:05:16;;;;;;;6.12;5.37;;;;;;;10.50;43.50;101588.42;1680720;84;21101;-65
2022/03/14 08:07:46;;;;;;;6.30;5.03;;;;;;;10.54;43.49;101585.88;1679898;85;20998;-65
2022/03/14 08:10:16;;;;;;;6.03;5.47;;;;;;;10.56;43.50;101582.62;1679731;85;20994;-66
2022/03/14 08:12:51;;;;;;;6.17;5.55;;;;;;;10.59;43.45;101586.37;1714543;83;20991;-65
2022/03/14 08:15:28;;;;;;;6.10;5.37;;;;;;;10.60;43.42;101580.94;1713995;82;25284;-65
2022/03/14 08:17:59;;;;;;;6.33;5.40;;;;;;;10.63;43.41;101581.16;1713994;82;21051;-65
2022/03/14 08:20:28;;;;;;;6.67;5.78;;;;;;;10.66;43.40;101587.55;1742788;82;21498;-65
2022/03/14 08:22:58;;;;;;;6.30;4.83;;;;;;;10.68;43.38;101586.97;1718984;81;21046;-64
2022/03/14 08:25:27;;;;;;;5.37;4.87;;;;;;;10.71;43.38;101584.04;1713948;83;21043;-65
2022/03/14 08:27:55;;;;;;;6.22;5.30;;;;;;;10.74;43.36;101586.47;1713900;83;21030;-65
2022/03/14 08:30:22;;;;;;;5.03;4.53;;;;;;;10.78;43.36;101583.08;1713966;83;21007;-65
2022/03/14 08:32:52;;;;;;;6.60;5.15;;;;;;;10.80;43.37;101580.64;1713914;83;21315;-65
2022/03/14 08:35:20;;;;;;;5.72;4.72;;;;;;;10.84;43.37;101582.57;1727781;82;21155;-64
2022/03/14 08:37:49;;;;;;;5.78;5.20;;;;;;;10.87;43.38;101580.14;1741945;82;21027;-65
2022/03/14 08:40:23;;;;;;;5.67;4.58;;;;;;;10.91;43.36;101574.92;1715181;81;21143;-65
2022/03/14 08:42:51;;;;;;;4.75;4.25;;;;;;;10.94;43.36;101578.19;1714401;83;27180;-65
2022/03/14 08:45:17;;;;;;;5.72;4.83;;;;;;;10.97;43.38;101577.08;1713896;82;21153;-66
2022/03/14 08:47:44;;;;;;;6.10;5.03;;;;;;;11.02;43.36;101570.91;1713930;82;21502;-66
2022/03/14 08:50:11;;;;;;;5.05;4.55;;;;;;;11.05;43.34;101575.98;1713942;83;21462;-66
2022/03/14 08:52:37;;;;;;;4.83;4.30;;;;;;;11.09;43.34;101571.27;1713919;82;21090;-64
2022/03/14 08:55:06;;;;;;;5.15;4.62;;;;;;;11.12;43.33;101569.17;1714871;82;21003;-65
2022/03/14 08:57:32;;;;;;;4.90;4.35;;;;;;;11.17;43.36;101564.81;1713913;83;21974;-65
2022/03/14 08:59:59;;;;;;;4.97;4.17;;;;;;;11.20;43.39;101566.73;1713718;83;21038;-66
2022/03/14 09:02:26;;;;;;;5.50;4.92;;;;;;;11.25;43.36;101561.52;1713849;82;21030;-65
2022/03/14 09:04:53;;;;;;;5.65;5.05;;;;;;;11.29;43.37;101559.79;1713880;83;21082;-67
2022/03/14 09:07:27;;;;;;;5.00;4.25;;;;;;;11.33;43.41;101554.56;1713898;82;21101;-66
2022/03/14 09:09:54;;;;;;;4.87;4.40;;;;;;;11.37;43.39;101545.34;1713928;82;21225;-65
2022/03/14 09:12:21;;;;;;;4.55;4.15;;;;;;;11.42;43.38;101544.98;1714826;82;21078;-66
2022/03/14 09:14:48;;;;;;;4.83;4.33;;;;;;;11.48;43.37;101547.61;1713971;82;21030;-66
2022/03/14 09:17:15;;;;;;;4.70;4.03;;;;;;;11.52;43.42;101542.38;1713902;83;21668;-66
2022/03/14 09:19:43;;;;;;;5.15;4.65;;;;;;;11.58;43.42;101540.03;1733654;82;21031;-66
2022/03/14 09:22:12;;;;;;;5.55;4.35;;;;;;;11.63;43.30;101533.00;1707705;84;21147;-66
2022/03/14 09:24:40;;;;;;;4.40;3.95;;;;;;;11.69;43.21;101529.80;1743482;81;21061;-65
2022/03/14 09:27:06;;;;;;;4.55;4.10;;;;;;;11.75;43.16;101526.61;1686782;84;21074;-66
2022/03/14 09:29:33;;;;;;;4.50;3.90;;;;;;;11.82;43.10;101521.61;1700882;84;21046;-65
2022/03/14 09:32:00;;;;;;;5.30;4.28;;;;;;;11.89;43.15;101525.44;1679351;85;21042;-66
2022/03/14 09:34:26;;;;;;;5.05;4.55;;;;;;;11.95;43.36;101514.25;1679394;85;21257;-65
2022/03/14 09:36:55;;;;;;;5.22;4.55;;;;;;;12.02;43.50;101513.24;1679510;85;21619;-65
2022/03/14 09:39:21;;;;;;;4.75;4.25;;;;;;;12.08;43.72;101517.19;1680383;83;21065;-65
2022/03/14 09:41:50;;;;;;;4.55;4.15;;;;;;;12.14;43.84;101509.98;1721121;83;21010;-66
2022/03/14 09:44:20;;;;;;;4.67;4.15;;;;;;;12.22;43.93;101505.31;1707810;84;21057;-65
2022/03/14 09:46:48;;;;;;;4.53;4.12;;;;;;;12.29;43.97;101510.47;1698011;84;21033;-65
2022/03/14 09:49:16;;;;;;;4.30;3.90;;;;;;;12.36;44.00;101517.78;1679317;85;21541;-67
2022/03/14 09:51:43;;;;;;;4.72;4.28;;;;;;;12.44;44.07;101512.23;1679668;85;21037;-65
2022/03/14 09:54:10;;;;;;;4.70;4.20;;;;;;;12.51;44.12;101513.38;1679289;85;21062;-65
2022/03/14 09:56:41;;;;;;;4.85;4.35;;;;;;;12.59;44.05;101505.52;1679472;85;21045;-65
2022/03/14 09:59:12;;;;;;;4.95;4.37;;;;;;;12.65;43.96;101509.00;1679714;85;21154;-65
2022/03/14 10:01:39;;;;;;;4.83;4.10;;;;;;;12.73;43.91;101510.47;1679164;85;21112;-65
2022/03/14 10:04:05;;;;;;;6.12;4.17;;;;;;;12.82;43.82;101502.61;1680296;84;21017;-66
2022/03/14 10:06:32;;;;;;;4.92;4.28;;;;;;;12.90;43.81;101503.61;1679406;85;21069;-66
2022/03/14 10:08:58;;;;;;;4.58;4.15;;;;;;;12.97;43.73;101498.05;1679345;85;21065;-65
2022/03/14 10:11:25;;;;;;;4.45;4.05;;;;;;;13.05;43.67;101488.50;1658591;85;21501;-66
2022/03/14 10:13:52;;;;;;;4.70;4.00;;;;;;;13.13;43.67;101485.95;1679387;85;20998;-66
2022/03/14 10:16:19;;;;;;;4.53;4.12;;;;;;;13.21;43.59;101481.24;1679450;85;21627;-66
2022/03/14 10:18:55;;;;;;;4.78;4.12;;;;;;;13.29;43.58;101475.55;1687286;82;21139;-67
2022/03/14 10:21:37;;;;;;;5.20;4.37;;;;;;;13.38;43.52;101481.88;1690837;84;21538;-65
2022/03/14 10:24:09;;;;;;;4.78;4.30;;;;;;;13.46;43.47;101476.68;1713976;83;21236;-66
2022/03/14 10:26:41;;;;;;;5.08;4.03;;;;;;;13.55;43.41;101462.94;1713992;82;21034;-67
2022/03/14 10:29:11;;;;;;;4.30;3.83;;;;;;;13.64;43.31;101474.59;1703464;83;21594;-66
2022/03/14 10:31:38;;;;;;;4.40;3.85;;;;;;;13.73;43.31;101471.02;1713829;82;21066;-66
2022/03/14 10:34:15;;;;;;;4.72;3.98;;;;;;;13.81;43.20;101467.61;1713967;83;21542;-65
2022/03/14 10:36:54;;;;;;;6.42;4.47;;;;;;;13.91;43.18;101467.09;1713699;82;21247;-65
2022/03/14 10:39:25;;;;;;;4.60;3.98;;;;;;;14.00;43.13;101463.52;1680250;84;21030;-65
2022/03/14 10:42:12;;;;;;;5.03;4.12;;;;;;;14.08;43.09;101464.11;1713934;83;21050;-65
2022/03/14 10:44:41;;;;;;;4.47;4.08;;;;;;;14.18;42.99;101462.24;1713904;82;21046;-65
2022/03/14 10:47:11;;;;;;;4.20;3.62;;;;;;;14.26;42.97;101465.00;1736404;82;21007;-66
2022/03/14 10:49:39;;;;;;;5.30;4.03;;;;;;;14.34;42.89;101455.72;1743864;81;21937;-65
2022/03/14 10:52:08;;;;;;;4.80;4.22;;;;;;;14.43;42.81;101456.66;1743446;82;21074;-65
2022/03/14 10:54:35;;;;;;;4.42;3.67;;;;;;;14.52;42.76;101445.53;1736019;82;20995;-66
2022/03/14 10:57:22;;;;;;;4.28;3.87;;;;;;;14.61;42.73;101439.81;1714025;82;21058;-66
2022/03/14 10:59:50;;;;;;;4.12;3.75;;;;;;;14.70;42.73;101437.56;1713821;83;21506;-66
2022/03/14 11:02:21;;;;;;;4.80;4.12;;;;;;;14.80;42.70;101433.47;1725450;82;21232;-66
2022/03/14 11:04:54;;;;;;;4.33;3.80;;;;;;;14.89;42.66;101435.19;1726606;83;21018;-67
2022/03/14 11:07:28;;;;;;;4.85;4.33;;;;;;;14.98;42.61;101431.59;1726720;82;21066;-65
2022/03/14 11:09:56;;;;;;;4.15;3.72;;;;;;;15.08;42.59;101430.16;1691493;84;21017;-65
2022/03/14 11:12:25;;;;;;;4.60;4.20;;;;;;;15.19;42.53;101429.07;1692658;83;21045;-66
2022/03/14 11:15:01;;;;;;;4.25;3.85;;;;;;;15.28;42.47;101424.12;1692159;84;21223;-65
2022/03/14 11:17:30;;;;;;;4.00;3.60;;;;;;;15.36;42.44;101420.14;1691699;84;21478;-65
2022/03/14 11:19:58;;;;;;;4.62;4.17;;;;;;;15.45;42.37;101420.53;1713986;82;21156;-65
2022/03/14 11:22:29;;;;;;;4.78;4.22;;;;;;;15.55;42.34;101421.76;1720900;83;21019;-67
2022/03/14 11:25:00;;;;;;;4.17;3.60;;;;;;;15.64;42.31;101415.92;1720706;83;20997;-66
2022/03/14 11:27:35;;;;;;;3.83;3.42;;;;;;;15.74;42.26;101413.98;1720647;83;21145;-66
2022/03/14 11:30:09;;;;;;;4.35;3.95;;;;;;;15.84;42.23;101409.83;1696052;83;21057;-65
2022/03/14 11:32:36;;;;;;;4.12;3.50;;;;;;;15.93;42.17;101412.89;1691990;84;21032;-66
2022/03/14 11:35:08;;;;;;;6.03;4.22;;;;;;;16.02;42.13;101399.85;1691797;84;21138;-67